Time;durP1;ratioP1;P1;durP2;ratioP2;P2;SDS_P1;SDS_P2;PMS_P1;PMS_P2;Temp;Humidity;BMP_temperature;BMP_pressure;BME280_temperature;BME280_humidity;BME280_pressure;Samples;Min_cycle;Max_cycle;Signal;HPM_P1;HPM_P2
2023/06/13 00:02:07;;;;;;;5.22;3.58;;;17.10;99.90;;;;;;4999763;28;20033;-77
2023/06/13 00:04:33;;;;;;;3.85;3.22;;;17.10;99.90;;;;;;5017779;28;20033;-77
2023/06/13 00:06:59;;;;;;;8.23;4.03;;;17.10;99.90;;;;;;5017430;28;20652;-77
2023/06/13 00:09:25;;;;;;;5.78;3.63;;;17.10;99.90;;;;;;5017788;28;20117;-77
2023/06/13 00:11:52;;;;;;;4.68;3.75;;;17.10;99.90;;;;;;5000177;28;20033;-77
2023/06/13 00:14:19;;;;;;;7.50;3.75;;;17.10;99.90;;;;;;5026486;28;20093;-77
2023/06/13 00:16:47;;;;;;;10.43;4.20;;;17.10;99.90;;;;;;5020480;28;20029;-77
2023/06/13 00:19:13;;;;;;;6.20;3.70;;;17.10;99.90;;;;;;5017484;28;20024;-77
2023/06/13 00:21:40;;;;;;;6.65;3.67;;;17.00;99.90;;;;;;5017279;28;20026;-77
2023/06/13 00:24:06;;;;;;;5.25;3.75;;;17.00;99.90;;;;;;5017582;28;20026;-77
2023/06/13 00:26:31;;;;;;;6.10;3.35;;;17.00;99.90;;;;;;4999588;28;20029;-77
2023/06/13 00:28:57;;;;;;;6.45;3.60;;;17.00;99.90;;;;;;5017525;28;20486;-77
2023/06/13 00:31:28;;;;;;;5.93;3.38;;;16.90;99.90;;;;;;5016691;28;20022;-77
2023/06/13 00:33:58;;;;;;;10.32;3.53;;;16.90;99.90;;;;;;4999566;28;20138;-76
2023/06/13 00:36:25;;;;;;;4.35;3.92;;;16.80;99.90;;;;;;5000216;28;20061;-77
2023/06/13 00:38:56;;;;;;;8.43;3.78;;;16.70;99.90;;;;;;4999741;28;20153;-77
2023/06/13 00:41:21;;;;;;;4.53;3.08;;;16.80;99.90;;;;;;5016796;28;20105;-76
2023/06/13 00:43:47;;;;;;;6.97;3.58;;;16.70;99.90;;;;;;5017313;28;20045;-76
2023/06/13 00:46:17;;;;;;;4.95;3.85;;;16.70;99.90;;;;;;5016570;28;20081;-77
2023/06/13 00:48:44;;;;;;;5.60;3.83;;;16.70;99.90;;;;;;4999667;28;20136;-77
2023/06/13 00:51:14;;;;;;;7.22;4.32;;;16.70;99.90;;;;;;5016919;28;20076;-76
2023/06/13 00:53:41;;;;;;;8.15;3.40;;;16.70;99.90;;;;;;5016944;28;20021;-77
2023/06/13 00:56:07;;;;;;;5.35;3.50;;;16.70;99.90;;;;;;5016442;28;20060;-77
2023/06/13 00:58:34;;;;;;;6.82;4.20;;;16.70;99.90;;;;;;4997497;28;20503;-77
2023/06/13 01:01:02;;;;;;;8.75;3.90;;;16.70;99.90;;;;;;5001073;28;20105;-76
2023/06/13 01:03:29;;;;;;;7.15;3.88;;;16.70;99.90;;;;;;4983418;28;20028;-76
2023/06/13 01:05:55;;;;;;;4.80;3.60;;;16.70;99.90;;;;;;4989010;28;20478;-76
2023/06/13 01:08:24;;;;;;;5.40;3.60;;;16.70;99.90;;;;;;4983736;28;20096;-76
2023/06/13 01:10:59;;;;;;;6.97;3.50;;;16.60;99.90;;;;;;5001149;28;20105;-77
2023/06/13 01:13:34;;;;;;;4.28;3.38;;;16.60;99.90;;;;;;4983505;28;20031;-77
2023/06/13 01:16:15;;;;;;;8.88;3.33;;;16.50;99.90;;;;;;5001128;28;20082;-77
2023/06/13 01:18:44;;;;;;;;;;;16.50;99.90;;;;;;5001205;28;20015;-76
2023/06/13 01:21:13;;;;;;;9.25;4.13;;;16.50;99.90;;;;;;5000980;28;20389;-77
2023/06/13 01:23:39;;;;;;;5.97;3.60;;;16.60;99.90;;;;;;5000830;28;20019;-77
2023/06/13 01:26:13;;;;;;;7.43;3.20;;;16.60;99.90;;;;;;5001086;28;20026;-77
2023/06/13 01:28:43;;;;;;;4.60;3.20;;;16.60;99.90;;;;;;4983417;28;20026;-77
2023/06/13 01:31:12;;;;;;;5.45;3.72;;;16.60;99.90;;;;;;4983246;28;20027;-77
2023/06/13 01:33:38;;;;;;;7.10;3.42;;;16.60;99.90;;;;;;5000914;28;20077;-77
2023/06/13 01:36:05;;;;;;;8.93;4.03;;;16.60;99.90;;;;;;4983053;28;20026;-77
2023/06/13 01:38:31;;;;;;;6.53;3.42;;;16.60;99.90;;;;;;4988177;28;20031;-77
2023/06/13 01:40:58;;;;;;;5.53;3.60;;;16.60;99.90;;;;;;5000413;28;20497;-76
2023/06/13 01:43:23;;;;;;;7.60;3.33;;;16.60;99.90;;;;;;5000855;28;20026;-76
2023/06/13 01:45:56;;;;;;;5.07;3.60;;;16.60;99.90;;;;;;5000509;28;20028;-76
2023/06/13 01:48:30;;;;;;;6.93;3.97;;;16.60;99.90;;;;;;5000518;28;20027;-77
2023/06/13 01:51:43;;;;;;;4.07;3.08;;;16.60;99.90;;;;;;4983073;28;20097;-77
2023/06/13 01:54:11;;;;;;;11.00;3.90;;;16.60;99.90;;;;;;4986688;28;20040;-77
2023/06/13 01:56:40;;;;;;;9.35;3.50;;;16.60;99.90;;;;;;4986596;28;20092;-77
2023/06/13 01:59:11;;;;;;;4.80;3.17;;;16.60;99.90;;;;;;4998936;28;20081;-77
2023/06/13 02:01:38;;;;;;;5.88;3.00;;;16.60;99.90;;;;;;5011988;28;20024;-77
2023/06/13 02:04:04;;;;;;;5.05;2.80;;;16.50;99.90;;;;;;5019585;28;20021;-77
2023/06/13 02:06:32;;;;;;;6.50;3.15;;;16.50;99.90;;;;;;5019786;28;20030;-77
2023/06/13 02:08:58;;;;;;;10.15;3.97;;;16.50;99.90;;;;;;5019691;28;20092;-77
2023/06/13 02:11:25;;;;;;;5.07;3.20;;;16.40;99.90;;;;;;5000465;28;20026;-77
2023/06/13 02:13:50;;;;;;;9.18;3.50;;;16.30;99.90;;;;;;5001981;28;20092;-77
2023/06/13 02:16:25;;;;;;;7.72;2.85;;;16.20;99.90;;;;;;5019542;28;20056;-77
2023/06/13 02:18:53;;;;;;;6.13;3.00;;;16.20;99.90;;;;;;5019770;28;20021;-77
2023/06/13 02:21:21;;;;;;;8.73;3.30;;;16.20;99.90;;;;;;5001943;28;20059;-77
2023/06/13 02:23:46;;;;;;;3.60;3.05;;;16.20;99.90;;;;;;5019543;28;20033;-77
2023/06/13 02:26:13;;;;;;;5.25;2.97;;;16.10;99.90;;;;;;5019241;28;20022;-77
2023/06/13 02:28:39;;;;;;;8.90;3.67;;;16.10;99.90;;;;;;5001080;28;20032;-76
2023/06/13 02:31:05;;;;;;;4.18;3.17;;;16.10;99.90;;;;;;5018951;28;20100;-77
2023/06/13 02:33:31;;;;;;;5.18;2.97;;;16.10;99.90;;;;;;5019301;28;20072;-77
2023/06/13 02:35:57;;;;;;;6.22;3.00;;;16.00;99.90;;;;;;5019247;28;20025;-77
2023/06/13 02:38:23;;;;;;;10.38;3.75;;;16.00;99.90;;;;;;5019192;28;20113;-77
2023/06/13 02:40:48;;;;;;;4.90;3.92;;;16.10;99.90;;;;;;5001646;28;20662;-77
2023/06/13 02:43:14;;;;;;;7.82;3.65;;;16.10;99.90;;;;;;4993372;28;20032;-77
2023/06/13 02:45:40;;;;;;;5.88;3.92;;;16.20;99.90;;;;;;4999038;28;20025;-77
2023/06/13 02:48:06;;;;;;;9.15;3.83;;;16.20;99.90;;;;;;5001096;28;20125;-77
2023/06/13 02:50:31;;;;;;;7.53;3.92;;;16.20;99.90;;;;;;5002902;28;20024;-77
2023/06/13 02:52:57;;;;;;;5.18;3.78;;;16.20;99.90;;;;;;5018835;28;20026;-77
2023/06/13 02:55:23;;;;;;;6.20;3.80;;;16.20;99.90;;;;;;5001090;28;20105;-77
2023/06/13 02:57:48;;;;;;;7.38;3.85;;;16.20;99.90;;;;;;5000838;28;20057;-77
2023/06/13 03:00:16;;;;;;;5.05;3.60;;;16.20;99.90;;;;;;5018321;28;20022;-77
2023/06/13 03:02:43;;;;;;;7.22;3.47;;;16.30;99.90;;;;;;5001388;28;20018;-77
2023/06/13 03:05:11;;;;;;;6.50;3.80;;;16.30;99.90;;;;;;5017527;28;20594;-77
2023/06/13 03:07:42;;;;;;;14.25;4.18;;;16.30;99.90;;;;;;5007165;28;20036;-77
2023/06/13 03:10:08;;;;;;;6.43;4.30;;;16.30;99.90;;;;;;5018218;28;20049;-78
2023/06/13 03:12:34;;;;;;;11.02;4.13;;;16.30;99.90;;;;;;5018520;28;20101;-77
2023/06/13 03:15:00;;;;;;;9.25;3.95;;;16.30;99.90;;;;;;5017840;28;20018;-78
2023/06/13 03:17:25;;;;;;;5.43;4.05;;;16.30;99.90;;;;;;5017959;28;20032;-78
2023/06/13 03:19:51;;;;;;;6.30;4.43;;;16.30;99.90;;;;;;5018556;28;20855;-78
2023/06/13 03:22:17;;;;;;;9.25;4.55;;;16.30;99.90;;;;;;5017734;28;20026;-78
2023/06/13 03:24:47;;;;;;;5.13;4.10;;;16.30;99.90;;;;;;5018159;28;20426;-78
2023/06/13 03:27:13;;;;;;;6.68;4.78;;;16.30;99.90;;;;;;5018205;28;20030;-77
2023/06/13 03:29:40;;;;;;;9.07;4.40;;;16.30;99.90;;;;;;5018315;28;20441;-77
2023/06/13 03:32:08;;;;;;;9.77;4.47;;;16.30;99.90;;;;;;5000547;28;20041;-77
2023/06/13 03:34:37;;;;;;;9.25;4.20;;;16.30;99.90;;;;;;5000457;28;20524;-77
2023/06/13 03:37:06;;;;;;;8.00;4.47;;;16.30;99.90;;;;;;5018085;28;21709;-77
2023/06/13 03:39:32;;;;;;;7.30;4.07;;;16.20;99.90;;;;;;5018009;28;20069;-77
2023/06/13 03:41:59;;;;;;;8.50;4.15;;;16.20;99.90;;;;;;5017893;28;20018;-78
2023/06/13 03:44:25;;;;;;;10.20;4.85;;;16.20;99.90;;;;;;5017694;28;20022;-78
2023/06/13 03:46:51;;;;;;;6.88;4.40;;;16.20;99.90;;;;;;5017167;28;20022;-77
2023/06/13 03:49:18;;;;;;;5.90;4.55;;;16.20;99.90;;;;;;5017706;28;20026;-78
2023/06/13 03:51:44;;;;;;;5.70;4.55;;;16.10;99.90;;;;;;5017663;28;20486;-78
2023/06/13 03:54:10;;;;;;;7.43;4.15;;;16.10;99.90;;;;;;5017463;28;20034;-78
2023/06/13 03:56:36;;;;;;;6.85;4.32;;;16.10;99.90;;;;;;5014017;28;20049;-78
2023/06/13 03:59:02;;;;;;;6.57;4.18;;;16.10;99.90;;;;;;4980623;28;20030;-77
2023/06/13 04:01:28;;;;;;;7.28;4.53;;;16.10;99.90;;;;;;4980061;28;20024;-77
2023/06/13 04:03:54;;;;;;;8.05;4.30;;;16.10;99.90;;;;;;5001484;28;20014;-77
2023/06/13 04:06:20;;;;;;;9.00;4.63;;;16.00;99.90;;;;;;5001272;28;20068;-77
2023/06/13 04:08:46;;;;;;;6.18;4.50;;;16.00;99.90;;;;;;4997855;28;20026;-77
2023/06/13 04:11:11;;;;;;;4.93;3.75;;;16.00;99.90;;;;;;4997861;28;20023;-77
2023/06/13 04:13:37;;;;;;;9.27;4.57;;;16.00;99.90;;;;;;4980496;28;20030;-77
2023/06/13 04:16:03;;;;;;;6.18;3.80;;;16.00;99.90;;;;;;4997323;28;20113;-77
2023/06/13 04:18:29;;;;;;;9.32;4.47;;;16.00;99.90;;;;;;4997495;28;20364;-78
2023/06/13 04:20:56;;;;;;;4.85;4.07;;;16.00;99.90;;;;;;4997475;28;20026;-78
2023/06/13 04:23:25;;;;;;;6.72;3.80;;;16.00;99.90;;;;;;4997740;28;20022;-78
2023/06/13 04:25:52;;;;;;;9.50;4.20;;;16.00;99.90;;;;;;4997111;28;20023;-78
2023/06/13 04:28:18;;;;;;;12.30;5.90;;;16.00;99.90;;;;;;4997592;28;20454;-78
2023/06/13 04:30:46;;;;;;;8.00;3.70;;;16.00;99.90;;;;;;4997511;28;20014;-77
2023/06/13 04:33:17;;;;;;;7.00;3.40;;;16.00;99.90;;;;;;4979035;28;20026;-77
2023/06/13 04:35:48;;;;;;;;;;;16.10;99.90;;;;;;4979919;28;20033;-77
2023/06/13 04:38:21;;;;;;;6.57;3.67;;;16.10;99.90;;;;;;4997464;28;20318;-77
2023/06/13 04:40:50;;;;;;;7.72;3.20;;;16.10;99.90;;;;;;4990922;28;20030;-77
2023/06/13 04:43:16;;;;;;;6.43;3.70;;;16.10;99.90;;;;;;4997249;28;20442;-77
2023/06/13 04:45:43;;;;;;;9.32;3.83;;;16.10;99.90;;;;;;4997354;28;20037;-77
2023/06/13 04:48:10;;;;;;;9.32;4.40;;;16.10;99.90;;;;;;4997031;28;20109;-78
2023/06/13 04:50:39;;;;;;;9.93;5.15;;;16.20;99.90;;;;;;4997453;28;20041;-77
2023/06/13 04:53:08;;;;;;;5.10;3.90;;;16.20;99.90;;;;;;4978154;28;20074;-77
2023/06/13 04:55:39;;;;;;;6.60;3.70;;;16.40;99.90;;;;;;4996950;28;20340;-77
2023/06/13 04:58:05;;;;;;;7.32;3.75;;;16.40;99.90;;;;;;5000391;28;20133;-77
2023/06/13 05:00:30;;;;;;;6.00;3.38;;;16.50;99.90;;;;;;5016954;28;20060;-78
2023/06/13 05:03:00;;;;;;;6.40;3.95;;;16.50;99.90;;;;;;5015539;28;20487;-78
2023/06/13 05:05:25;;;;;;;6.32;4.35;;;16.60;99.90;;;;;;5018850;28;20010;-77
2023/06/13 05:07:59;;;;;;;4.97;3.88;;;16.70;99.90;;;;;;5016738;28;20038;-77
2023/06/13 05:10:25;;;;;;;10.27;3.95;;;16.70;99.90;;;;;;5016373;28;20084;-76
2023/06/13 05:12:52;;;;;;;9.05;4.45;;;16.80;99.90;;;;;;5016857;28;20044;-76
2023/06/13 05:15:19;;;;;;;4.75;3.92;;;16.90;99.90;;;;;;5016559;28;20025;-77
2023/06/13 05:17:45;;;;;;;7.38;3.90;;;17.00;99.90;;;;;;5016503;28;20041;-76
2023/06/13 05:20:12;;;;;;;8.13;3.55;;;17.00;99.90;;;;;;5016111;28;20018;-77
2023/06/13 05:22:39;;;;;;;7.10;4.40;;;17.20;99.90;;;;;;5016187;28;20017;-77
2023/06/13 05:25:08;;;;;;;6.50;3.72;;;17.20;99.90;;;;;;5016364;28;20029;-76
2023/06/13 05:27:34;;;;;;;5.72;3.60;;;17.40;99.90;;;;;;5016266;28;20022;-76
2023/06/13 05:30:00;;;;;;;5.85;3.35;;;17.40;99.90;;;;;;5016692;28;20026;-77
2023/06/13 05:32:26;;;;;;;5.57;3.50;;;17.40;99.90;;;;;;5016156;28;20030;-77
2023/06/13 05:34:51;;;;;;;7.68;3.15;;;17.50;99.90;;;;;;5014972;28;21344;-76
2023/06/13 05:37:17;;;;;;;5.22;2.95;;;17.50;99.90;;;;;;5016301;28;20065;-76
2023/06/13 05:39:43;;;;;;;3.88;3.05;;;17.60;99.90;;;;;;5016415;28;20108;-77
2023/06/13 05:42:09;;;;;;;4.82;3.15;;;17.70;99.90;;;;;;4998682;28;20030;-76
2023/06/13 05:44:34;;;;;;;6.82;3.45;;;17.70;99.90;;;;;;5016555;28;20030;-76
2023/06/13 05:47:00;;;;;;;4.75;2.97;;;17.70;99.90;;;;;;5002026;28;20490;-77
2023/06/13 05:49:26;;;;;;;7.88;3.72;;;17.80;99.90;;;;;;5019767;28;20449;-76
2023/06/13 05:51:53;;;;;;;9.45;4.82;;;17.80;99.90;;;;;;5019886;28;20022;-76
2023/06/13 05:54:19;;;;;;;4.50;3.08;;;17.90;99.90;;;;;;5001758;28;20101;-76
2023/06/13 05:56:44;;;;;;;5.90;3.45;;;17.90;99.90;;;;;;5015076;28;20050;-76
2023/06/13 05:59:14;;;;;;;7.80;3.80;;;18.00;99.90;;;;;;5000261;28;20026;-76
2023/06/13 06:01:43;;;;;;;5.95;2.83;;;18.00;99.90;;;;;;5000053;28;20056;-77
2023/06/13 06:04:09;;;;;;;6.88;3.03;;;18.10;99.90;;;;;;5005198;28;20029;-76
2023/06/13 06:06:35;;;;;;;7.65;3.28;;;18.10;99.90;;;;;;5003241;28;20026;-76
2023/06/13 06:09:01;;;;;;;6.55;3.45;;;18.20;99.90;;;;;;4982951;28;20038;-76
2023/06/13 06:11:28;;;;;;;7.25;3.67;;;18.20;99.90;;;;;;4999805;28;20070;-76
2023/06/13 06:13:53;;;;;;;4.47;3.10;;;18.20;99.90;;;;;;4999936;28;20022;-76
2023/06/13 06:16:20;;;;;;;7.32;3.13;;;18.30;99.90;;;;;;4999986;28;20154;-76
2023/06/13 06:18:45;;;;;;;5.07;3.28;;;18.30;99.90;;;;;;4999460;28;20022;-76
2023/06/13 06:21:11;;;;;;;4.82;3.20;;;18.40;99.90;;;;;;5000241;28;20027;-76
2023/06/13 06:23:42;;;;;;;4.85;2.88;;;18.40;99.90;;;;;;4982264;28;20023;-76
2023/06/13 06:26:11;;;;;;;8.68;3.10;;;18.50;99.90;;;;;;4999157;28;20034;-76
2023/06/13 06:28:39;;;;;;;4.43;2.78;;;18.50;99.90;;;;;;4999801;28;20561;-76
2023/06/13 06:31:05;;;;;;;8.57;3.45;;;18.40;99.90;;;;;;4999013;28;20037;-76
2023/06/13 06:33:31;;;;;;;5.80;3.35;;;18.50;99.90;;;;;;4989095;28;20030;-76
2023/06/13 06:35:57;;;;;;;3.75;3.00;;;18.50;99.90;;;;;;4999617;28;20037;-76
2023/06/13 06:38:23;;;;;;;6.25;3.22;;;18.50;99.90;;;;;;4999228;28;20022;-77
2023/06/13 06:40:48;;;;;;;7.00;2.75;;;18.50;99.90;;;;;;4999399;28;20033;-77
2023/06/13 06:43:14;;;;;;;5.60;3.05;;;18.40;99.90;;;;;;4997910;28;20023;-77
2023/06/13 06:45:40;;;;;;;9.00;3.25;;;18.30;99.90;;;;;;4998874;28;20023;-77
2023/06/13 06:48:05;;;;;;;5.53;3.08;;;18.40;99.90;;;;;;4978055;28;20034;-76
2023/06/13 06:50:31;;;;;;;7.07;2.67;;;18.50;99.90;;;;;;4992851;28;20062;-77
2023/06/13 06:52:57;;;;;;;6.75;2.72;;;18.60;99.90;;;;;;4999234;28;20018;-78
2023/06/13 06:55:22;;;;;;;6.22;3.05;;;18.70;99.90;;;;;;4998961;28;20069;-76
2023/06/13 06:57:48;;;;;;;4.63;3.00;;;18.80;99.90;;;;;;4994984;28;20134;-77
2023/06/13 07:00:14;;;;;;;6.45;2.85;;;18.80;99.90;;;;;;5001137;28;20025;-77
2023/06/13 07:02:43;;;;;;;5.15;2.67;;;19.00;99.90;;;;;;5018361;28;20017;-78
2023/06/13 07:05:09;;;;;;;5.70;2.60;;;19.00;99.90;;;;;;5023911;28;20022;-78
2023/06/13 07:07:36;;;;;;;6.03;2.83;;;19.10;99.90;;;;;;5017476;28;20026;-78
2023/06/13 07:10:03;;;;;;;6.30;2.72;;;19.00;99.90;;;;;;5018627;28;20026;-78
2023/06/13 07:12:32;;;;;;;4.72;2.40;;;19.20;99.90;;;;;;5001327;28;20026;-78
2023/06/13 07:14:58;;;;;;;3.30;2.40;;;19.40;99.90;;;;;;5000474;28;20053;-78
2023/06/13 07:17:24;;;;;;;3.90;2.60;;;19.50;99.90;;;;;;5018210;28;20386;-77
2023/06/13 07:19:49;;;;;;;3.45;1.83;;;19.60;99.90;;;;;;5018525;28;20029;-77
2023/06/13 07:22:15;;;;;;;9.73;3.45;;;19.70;99.90;;;;;;5018503;28;20022;-77
2023/06/13 07:24:41;;;;;;;5.85;1.63;;;19.60;99.90;;;;;;5000483;28;20037;-78
2023/06/13 07:27:07;;;;;;;3.25;1.65;;;19.50;99.90;;;;;;5018392;28;20025;-78
2023/06/13 07:29:33;;;;;;;4.97;2.00;;;19.30;99.90;;;;;;5018173;28;20507;-77
2023/06/13 07:32:03;;;;;;;3.40;2.05;;;19.30;99.90;;;;;;5018018;28;20030;-77
2023/06/13 07:34:29;;;;;;;6.65;2.10;;;19.30;99.90;;;;;;5018272;28;20081;-77
2023/06/13 07:36:54;;;;;;;7.32;2.60;;;19.40;99.90;;;;;;5017976;28;20030;-77
2023/06/13 07:39:20;;;;;;;4.07;2.15;;;19.50;99.90;;;;;;5018083;28;20026;-77
2023/06/13 07:41:48;;;;;;;5.97;2.10;;;19.70;99.90;;;;;;5008419;28;20025;-78
2023/06/13 07:44:14;;;;;;;6.70;2.20;;;19.80;99.90;;;;;;5016532;28;20045;-77
2023/06/13 07:46:40;;;;;;;5.00;2.00;;;19.90;99.90;;;;;;5017207;28;20026;-77
2023/06/13 07:49:05;;;;;;;3.83;1.95;;;20.00;99.90;;;;;;5017852;28;20552;-77
2023/06/13 07:51:32;;;;;;;7.00;2.40;;;20.20;99.90;;;;;;5017544;28;20029;-77
2023/06/13 07:53:57;;;;;;;3.22;2.00;;;20.30;99.90;;;;;;5000213;28;20075;-77
2023/06/13 07:56:23;;;;;;;4.80;2.78;;;20.60;99.90;;;;;;5015631;28;20026;-77
2023/06/13 07:58:49;;;;;;;3.88;2.63;;;20.50;99.90;;;;;;4980521;28;20521;-78
2023/06/13 08:01:15;;;;;;;3.88;2.20;;;20.50;99.90;;;;;;4997744;28;20015;-77
2023/06/13 08:03:41;;;;;;;3.15;1.90;;;20.70;99.90;;;;;;4999736;28;20034;-77
2023/06/13 08:06:07;;;;;;;4.95;2.05;;;20.80;99.90;;;;;;4978798;28;20030;-77
2023/06/13 08:08:33;;;;;;;3.20;2.20;;;20.60;99.90;;;;;;4993395;28;20053;-77
2023/06/13 08:10:58;;;;;;;4.30;2.22;;;20.60;99.90;;;;;;4997681;28;20022;-77
2023/06/13 08:13:24;;;;;;;3.80;1.90;;;20.50;99.90;;;;;;4998024;28;20030;-77
2023/06/13 08:15:50;;;;;;;3.60;2.20;;;20.60;99.90;;;;;;4996498;28;20046;-76
2023/06/13 08:18:16;;;;;;;5.72;1.90;;;20.60;99.90;;;;;;4997694;28;20022;-77
2023/06/13 08:20:42;;;;;;;3.40;2.00;;;20.60;99.90;;;;;;4980679;28;20018;-76
2023/06/13 08:23:07;;;;;;;4.28;2.05;;;20.70;99.90;;;;;;4997755;28;20038;-77
2023/06/13 08:25:33;;;;;;;2.42;1.50;;;20.70;99.90;;;;;;4997835;28;20022;-77
2023/06/13 08:27:59;;;;;;;2.92;2.00;;;20.70;99.90;;;;;;4980208;28;20058;-76
2023/06/13 08:30:25;;;;;;;4.35;1.83;;;20.70;99.90;;;;;;4997994;28;20466;-76
2023/06/13 08:32:52;;;;;;;5.63;2.65;;;20.50;99.90;;;;;;4997090;28;20101;-77
2023/06/13 08:35:21;;;;;;;2.75;1.73;;;20.50;99.90;;;;;;4997508;28;20142;-77
2023/06/13 08:37:47;;;;;;;3.97;1.90;;;20.60;99.90;;;;;;4997407;28;20050;-77
2023/06/13 08:40:15;;;;;;;2.95;1.67;;;20.80;99.90;;;;;;4980011;28;20023;-77
2023/06/13 08:42:43;;;;;;;5.13;1.98;;;21.00;99.90;;;;;;4997322;28;20042;-76
2023/06/13 08:45:09;;;;;;;2.67;2.08;;;21.20;99.90;;;;;;4997603;28;20027;-76
2023/06/13 08:47:35;;;;;;;4.82;1.70;;;21.40;99.90;;;;;;4997186;28;20029;-76
2023/06/13 08:50:02;;;;;;;2.60;1.73;;;21.60;99.90;;;;;;4997471;28;20045;-76
2023/06/13 08:52:39;;;;;;;3.13;1.63;;;21.70;99.90;;;;;;4997546;28;20517;-76
2023/06/13 08:55:13;;;;;;;3.35;1.80;;;21.80;99.90;;;;;;4997437;28;20030;-77
2023/06/13 08:57:40;;;;;;;5.97;1.90;;;21.90;99.90;;;;;;4997091;28;20084;-76
2023/06/13 09:00:13;;;;;;;2.53;1.70;;;21.80;99.90;;;;;;4997365;28;20049;-76
2023/06/13 09:02:45;;;;;;;5.05;1.90;;;21.80;99.90;;;;;;4970914;28;20077;-76
2023/06/13 09:05:15;;;;;;;2.83;1.65;;;21.90;99.90;;;;;;5003818;28;20045;-76
2023/06/13 09:07:45;;;;;;;2.70;1.60;;;22.20;99.90;;;;;;4997361;28;20030;-76
2023/06/13 09:10:12;;;;;;;2.53;1.52;;;22.50;99.90;;;;;;4995943;28;20034;-76
2023/06/13 09:12:45;;;;;;;3.13;2.38;;;22.90;99.90;;;;;;4996367;28;20031;-76
2023/06/13 09:15:11;;;;;;;3.50;1.80;;;23.10;99.90;;;;;;4997043;28;20050;-77
2023/06/13 09:17:37;;;;;;;3.05;2.28;;;23.20;99.90;;;;;;4997154;28;20073;-76
2023/06/13 09:20:05;;;;;;;3.85;1.98;;;22.90;99.90;;;;;;4979992;28;20491;-76
2023/06/13 09:22:32;;;;;;;6.05;2.15;;;23.00;99.90;;;;;;5001143;28;20030;-76
2023/06/13 09:24:59;;;;;;;2.80;1.75;;;23.00;99.90;;;;;;5000918;28;20510;-76
2023/06/13 09:27:26;;;;;;;3.60;1.88;;;22.90;99.90;;;;;;5000749;28;20033;-75
2023/06/13 09:29:52;;;;;;;3.67;1.85;;;22.70;99.90;;;;;;5000933;28;20015;-75
2023/06/13 09:32:20;;;;;;;3.45;1.98;;;22.60;99.90;;;;;;5000817;28;20022;-76
2023/06/13 09:34:48;;;;;;;3.28;2.05;;;22.60;99.90;;;;;;5000583;28;20081;-76
2023/06/13 09:37:15;;;;;;;1.83;1.40;;;22.70;99.90;;;;;;5000775;28;20034;-75
2023/06/13 09:39:48;;;;;;;3.63;1.73;;;22.80;99.90;;;;;;5000644;28;20015;-75
2023/06/13 09:42:14;;;;;;;2.40;1.67;;;22.80;99.90;;;;;;5000826;28;20045;-75
2023/06/13 09:44:40;;;;;;;4.60;2.28;;;22.90;99.90;;;;;;5000740;28;20022;-76
2023/06/13 09:47:06;;;;;;;2.05;1.45;;;22.80;99.90;;;;;;4983119;28;20031;-75
2023/06/13 09:49:32;;;;;;;3.08;2.00;;;22.60;99.90;;;;;;4999624;28;20387;-76
2023/06/13 09:52:00;;;;;;;5.75;1.70;;;22.60;99.90;;;;;;5000533;28;20027;-76
2023/06/13 09:54:29;;;;;;;3.58;1.85;;;22.50;99.90;;;;;;4979645;28;20033;-75
2023/06/13 09:56:56;;;;;;;2.47;1.67;;;22.40;99.90;;;;;;5000167;28;20380;-76
2023/06/13 09:59:22;;;;;;;3.40;1.80;;;22.60;99.90;;;;;;5000182;28;20434;-76
2023/06/13 10:01:48;;;;;;;2.67;1.77;;;22.60;99.90;;;;;;5000101;28;20089;-76
2023/06/13 10:04:14;;;;;;;4.75;1.85;;;22.70;99.90;;;;;;5001035;28;20030;-76
2023/06/13 10:06:41;;;;;;;3.10;1.80;;;22.60;99.90;;;;;;5000246;28;20026;-76
2023/06/13 10:09:07;;;;;;;4.80;2.05;;;22.60;99.90;;;;;;4999896;28;20028;-76
2023/06/13 10:11:37;;;;;;;2.85;1.70;;;22.60;99.90;;;;;;5000090;28;20114;-76
2023/06/13 10:14:08;;;;;;;2.70;2.15;;;22.70;99.90;;;;;;4977909;28;20117;-76
2023/06/13 10:16:51;;;;;;;3.20;1.42;;;22.90;99.90;;;;;;4999745;28;20549;-77
2023/06/13 10:19:19;;;;;;;2.72;1.90;;;23.10;99.90;;;;;;4989830;28;20501;-76
2023/06/13 10:21:46;;;;;;;4.57;1.60;;;23.20;99.90;;;;;;4982178;28;20034;-76
2023/06/13 10:24:14;;;;;;;2.42;1.73;;;23.50;99.90;;;;;;4999731;28;20018;-76
2023/06/13 10:26:42;;;;;;;2.50;1.88;;;23.70;99.90;;;;;;4999414;28;20030;-76
2023/06/13 10:29:27;;;;;;;5.18;1.88;;;23.60;99.90;;;;;;4999772;28;20052;-76
2023/06/13 10:32:02;;;;;;;2.70;1.80;;;23.90;99.90;;;;;;4998667;28;20030;-76
2023/06/13 10:34:57;;;;;;;3.38;1.83;;;23.80;99.90;;;;;;4999667;28;20090;-75
2023/06/13 10:37:41;;;;;;;2.13;1.50;;;23.80;99.90;;;;;;4999735;28;20037;-75
2023/06/13 10:40:32;;;;;;;4.28;2.00;;;23.80;99.90;;;;;;4993833;28;20033;-75
2023/06/13 10:43:37;;;;;;;3.85;1.70;;;23.60;99.90;;;;;;4997755;28;20022;-74
2023/06/13 10:46:07;;;;;;;2.38;1.50;;;23.90;99.90;;;;;;4994637;28;20039;-74
2023/06/13 10:48:46;;;;;;;2.80;1.65;;;24.10;99.90;;;;;;4998654;28;20034;-75
2023/06/13 10:51:11;;;;;;;2.70;1.73;;;24.30;99.90;;;;;;4998963;28;20050;-75
2023/06/13 10:53:37;;;;;;;2.15;1.33;;;24.90;99.90;;;;;;4999517;28;20031;-75
2023/06/13 10:56:07;;;;;;;2.78;1.92;;;25.40;99.90;;;;;;4999122;28;20022;-75
2023/06/13 10:58:34;;;;;;;2.43;1.60;;;25.50;99.90;;;;;;4999089;28;20101;-75
2023/06/13 11:01:25;;;;;;;3.28;1.80;;;25.60;99.90;;;;;;4978144;28;20023;-76
2023/06/13 11:03:51;;;;;;;2.72;1.50;;;25.80;99.90;;;;;;4990515;28;20025;-75
2023/06/13 11:06:16;;;;;;;2.65;1.50;;;25.90;99.90;;;;;;4978240;28;20035;-76
2023/06/13 11:08:43;;;;;;;2.83;1.92;;;26.00;99.90;;;;;;4995449;28;20022;-75
2023/06/13 11:11:09;;;;;;;2.30;1.65;;;25.60;99.90;;;;;;4999022;28;20061;-75
2023/06/13 11:13:36;;;;;;;2.30;1.40;;;25.30;99.90;;;;;;4998670;28;20033;-74
2023/06/13 11:16:38;;;;;;;4.20;1.75;;;25.10;99.90;;;;;;4981484;28;20117;-75
2023/06/13 11:19:14;;;;;;;2.40;1.65;;;24.80;99.90;;;;;;4985379;28;20406;-74
2023/06/13 11:21:44;;;;;;;2.67;1.88;;;24.70;99.90;;;;;;4998788;28;20061;-75
2023/06/13 11:24:14;;;;;;;2.58;1.70;;;24.60;99.90;;;;;;4997773;28;20423;-75
2023/06/13 11:26:45;;;;;;;2.55;1.58;;;24.60;99.90;;;;;;4978012;28;20050;-74
2023/06/13 11:29:12;;;;;;;2.67;1.70;;;24.80;99.90;;;;;;4998659;28;20394;-75
2023/06/13 11:31:39;;;;;;;3.03;1.42;;;25.00;99.90;;;;;;4998395;28;20030;-74
2023/06/13 11:34:12;;;;;;;3.00;1.50;;;25.00;99.90;;;;;;4998785;28;20506;-75
2023/06/13 11:36:42;;;;;;;3.92;2.08;;;25.20;99.90;;;;;;4998387;28;20498;-75
2023/06/13 11:39:23;;;;;;;2.40;1.63;;;25.50;99.90;;;;;;4981120;28;20409;-74
2023/06/13 11:41:49;;;;;;;2.20;1.30;;;25.50;99.90;;;;;;4998342;28;20038;-74
2023/06/13 11:44:14;;;;;;;2.83;1.73;;;25.40;99.90;;;;;;4998255;28;21412;-74
2023/06/13 11:46:43;;;;;;;5.57;1.83;;;25.40;99.90;;;;;;4980610;28;20030;-74
2023/06/13 11:49:13;;;;;;;2.90;1.80;;;25.40;99.90;;;;;;4981364;28;20037;-74
2023/06/13 11:51:39;;;;;;;12.50;3.72;;;25.30;99.90;;;;;;4995279;28;20023;-74
2023/06/13 11:54:04;;;;;;;2.63;1.80;;;25.60;99.90;;;;;;4995207;28;20038;-73
2023/06/13 11:56:34;;;;;;;3.42;2.22;;;25.60;99.90;;;;;;4998039;28;20053;-75
2023/06/13 11:59:00;;;;;;;4.53;2.10;;;25.30;99.90;;;;;;4980380;28;20035;-74
2023/06/13 12:01:26;;;;;;;5.63;2.28;;;25.00;99.90;;;;;;4998230;28;20144;-73
2023/06/13 12:03:55;;;;;;;3.83;2.30;;;24.60;99.90;;;;;;4980243;28;20022;-74
2023/06/13 12:06:22;;;;;;;3.22;2.13;;;24.40;99.90;;;;;;4998640;28;20054;-74
2023/06/13 12:08:49;;;;;;;4.40;2.30;;;24.40;99.90;;;;;;4980466;28;20026;-74
2023/06/13 12:11:16;;;;;;;3.70;1.90;;;24.50;99.90;;;;;;4998208;28;20022;-74
2023/06/13 12:14:01;;;;;;;3.78;1.95;;;24.80;99.90;;;;;;4998081;28;20030;-74
2023/06/13 12:16:29;;;;;;;2.70;1.63;;;25.30;99.90;;;;;;4997795;28;20049;-75
2023/06/13 12:18:55;;;;;;;5.65;2.28;;;25.80;99.90;;;;;;4985390;28;20033;-75
2023/06/13 12:21:29;;;;;;;15.63;2.47;;;25.90;99.90;;;;;;4996737;28;20050;-76
2023/06/13 12:23:57;;;;;;;4.80;2.00;;;26.20;99.90;;;;;;4969180;28;20072;-73
2023/06/13 12:26:33;;;;;;;4.93;2.35;;;26.30;99.90;;;;;;4997674;28;20030;-75
2023/06/13 12:29:02;;;;;;;4.85;1.90;;;26.20;99.90;;;;;;4997698;28;20026;-76
2023/06/13 12:31:34;;;;;;;7.13;2.40;;;26.40;99.90;;;;;;4996470;28;20022;-75
2023/06/13 12:34:29;;;;;;;7.63;2.30;;;26.10;99.90;;;;;;5006304;28;20395;-74
2023/06/13 12:37:02;;;;;;;3.92;2.42;;;25.70;99.90;;;;;;4965941;28;20042;-74
2023/06/13 17:04:24;;;;;;;3.17;2.15;;;23.90;99.90;;;;;;4986258;28;20039;-74
2023/06/13 17:06:50;;;;;;;3.53;2.50;;;23.90;99.90;;;;;;4992272;28;20507;-73
2023/06/13 17:09:16;;;;;;;3.90;2.53;;;23.80;99.90;;;;;;4999341;28;20097;-73
2023/06/13 17:11:41;;;;;;;4.95;2.63;;;23.80;99.90;;;;;;5000158;28;20018;-73
2023/06/13 17:14:07;;;;;;;3.28;2.13;;;23.80;99.90;;;;;;4974406;28;20037;-73
2023/06/13 17:16:33;;;;;;;4.40;2.50;;;23.70;99.90;;;;;;4999564;28;20026;-72
2023/06/13 17:18:59;;;;;;;4.88;2.90;;;23.60;99.90;;;;;;4978635;28;20031;-74